Forside
METAR-TAF:

METAR-TAF

Lufthavne :

Kosrae, Mikronesien

Breddekreds: 05-21N, længdekreds: 162-57E, højde: 3 m

Aktuelle vejr

Denne rapport blev lavet for 2 timer og 7 minutter siden, kl. 03:55 UTC
Vind 10 kt fra sydvest
Temperatur 27°C
Fugtighed 94%
Tryk 1007 hPa
Sigt: 16.1 km
Brudte skyer i en højde af 13000 ft
Overskyet i en højde af 30000 ft

METAR: PTSA 210355Z 23010KT 10SM BKNO17TCU BKN130 OVC300 27/26 A2975 RMK TCU NE LAST

Tid: 17:02 (06:02 UTC)

Vejrudsigter

Denne rapport blev lavet for 6 timer og 26 minutter siden, kl. 23:36 UTC
Foreløbig gælder fra 21 på 00 UTC til 21 på 24 UTC
Vind 5 kt fra vestnordvest
Sigt: 10 km
Spredte skyer i en højde af 1800 ft
Brudte skyer i en højde af 13000 ft
Overskyet i en højde af 30000 ft
byger i nærheden
Midlertidig
fra 21 på 00 UTC til 21 på 04 UTC
Brudte skyer i en højde af 1800 ft
Brudte skyer i en højde af 12000 ft
Overskyet i en højde af 30000 ft
let regnbyger

TAF: PTSA 202336Z 2100/2124 30005KT P6SM VCSH SCT018 BKN130 OVC300 TEMPO 2100/2104 -SHRA BKN018 BKN120 OVC300

Vejrobservationer og prognoser fra mere end 4000 lufthavne (METAR og TAF).

De gule og røde prikker repræsenterer de meteorologiske stationer.

Flyt musen over at se navnet på stationen.

Så klik over at se vejr observationer og prognoser.

At skifte det kort: Klik på de grønne knapper med et sort kors for at zoome ind; på den grønne knap med en bindestreg for at zoome ud; eller på de grønne pile for tilstødende kort.


METAR-TAF: